Time;durP1;ratioP1;P1;durP2;ratioP2;P2;SDS_P1;SDS_P2;PMS_P1;PMS_P2;Temp;Humidity;BMP_temperature;BMP_pressure;BME280_temperature;BME280_humidity;BME280_pressure;Samples;Min_cycle;Max_cycle;Signal;HPM_P1;HPM_P2
2024/03/06 00:01:30;;;;;;;2.85;1.77;;;13.00;94.30;;;;;;5071727;28;20020;-35
2024/03/06 00:03:55;;;;;;;3.67;1.90;;;12.90;94.30;;;;;;5070875;28;20023;-35
2024/03/06 00:06:21;;;;;;;2.30;1.65;;;12.90;94.30;;;;;;5072080;28;20028;-36
2024/03/06 00:08:46;;;;;;;3.78;2.05;;;12.90;94.40;;;;;;5072175;28;20506;-35
2024/03/06 00:11:13;;;;;;;2.88;1.95;;;12.90;94.40;;;;;;5071243;28;20035;-35
2024/03/06 00:13:39;;;;;;;3.50;2.08;;;12.90;94.50;;;;;;5071643;28;20036;-38
2024/03/06 00:16:05;;;;;;;2.70;1.83;;;12.90;94.50;;;;;;5072184;28;20025;-35
2024/03/06 00:18:30;;;;;;;4.72;2.33;;;12.90;94.50;;;;;;5071600;28;20039;-35
2024/03/06 00:20:56;;;;;;;3.55;2.17;;;12.80;94.50;;;;;;5071059;28;20039;-35
2024/03/06 00:23:21;;;;;;;2.17;1.65;;;12.80;94.50;;;;;;5071666;28;20471;-35
2024/03/06 00:25:47;;;;;;;4.30;2.03;;;12.80;94.50;;;;;;5071091;28;20037;-35
2024/03/06 00:28:12;;;;;;;3.60;1.90;;;12.90;94.50;;;;;;5071819;28;20051;-36
2024/03/06 00:30:38;;;;;;;2.55;1.65;;;12.80;94.50;;;;;;5072184;28;20056;-35
2024/03/06 00:33:04;;;;;;;4.55;1.77;;;12.80;94.50;;;;;;5070676;28;20518;-36
2024/03/06 00:35:29;;;;;;;2.92;1.70;;;12.90;94.50;;;;;;5070762;28;20108;-35
2024/03/06 00:37:55;;;;;;;4.15;1.90;;;12.80;94.40;;;;;;5071005;28;20052;-35
2024/03/06 00:40:21;;;;;;;2.65;1.60;;;12.80;94.40;;;;;;5070395;28;20482;-35
2024/03/06 00:42:46;;;;;;;2.17;1.50;;;12.80;94.40;;;;;;5071652;28;20025;-35
2024/03/06 00:45:12;;;;;;;2.85;1.70;;;12.80;94.40;;;;;;5071044;28;20022;-35
2024/03/06 00:47:37;;;;;;;2.70;1.67;;;12.80;94.50;;;;;;5073694;28;20573;-35
2024/03/06 00:50:07;;;;;;;3.13;1.80;;;12.80;94.50;;;;;;5074782;28;20016;-35
2024/03/06 00:52:33;;;;;;;4.65;1.77;;;12.80;94.50;;;;;;5076314;28;20020;-35
2024/03/06 00:54:59;;;;;;;3.15;1.90;;;12.70;94.50;;;;;;5073918;28;20394;-35
2024/03/06 00:57:24;;;;;;;2.75;1.73;;;12.70;94.50;;;;;;5076631;28;20024;-35
2024/03/06 00:59:50;;;;;;;3.80;1.80;;;12.70;94.50;;;;;;5075463;28;20047;-36
2024/03/06 01:02:15;;;;;;;3.45;1.88;;;12.70;94.50;;;;;;5074340;28;20032;-35
2024/03/06 01:04:41;;;;;;;3.28;1.60;;;12.70;94.50;;;;;;5075092;28;20034;-35
2024/03/06 01:07:07;;;;;;;2.97;1.70;;;12.70;94.50;;;;;;5075604;28;20028;-35
2024/03/06 01:09:32;;;;;;;2.28;1.70;;;12.70;94.60;;;;;;5074421;28;20028;-35
2024/03/06 01:11:58;;;;;;;3.80;2.30;;;12.70;94.60;;;;;;5074692;28;20108;-35
2024/03/06 01:14:23;;;;;;;2.72;1.60;;;12.60;94.60;;;;;;5074154;28;20056;-35
2024/03/06 01:16:49;;;;;;;4.22;1.92;;;12.70;94.60;;;;;;5073540;28;20040;-35
2024/03/06 01:19:14;;;;;;;2.92;1.77;;;12.60;94.60;;;;;;5073290;28;20025;-35
2024/03/06 01:21:41;;;;;;;2.60;1.73;;;12.60;94.60;;;;;;5074091;28;20037;-35
2024/03/06 01:24:07;;;;;;;3.03;1.83;;;12.60;94.60;;;;;;5074702;28;20024;-35
2024/03/06 01:26:32;;;;;;;3.45;1.85;;;12.60;94.60;;;;;;5075410;28;20479;-35
2024/03/06 01:28:58;;;;;;;3.65;1.80;;;12.60;94.70;;;;;;5073630;28;20107;-35
2024/03/06 01:31:24;;;;;;;3.05;1.90;;;12.60;94.60;;;;;;5073653;28;20466;-35
2024/03/06 01:33:50;;;;;;;3.45;2.10;;;12.50;94.60;;;;;;5074778;28;20481;-35
2024/03/06 01:36:16;;;;;;;3.35;1.90;;;12.60;95.00;;;;;;5073578;28;20060;-35
2024/03/06 01:38:41;;;;;;;2.65;1.67;;;12.50;94.70;;;;;;5073719;28;20383;-35
2024/03/06 01:41:08;;;;;;;3.20;1.67;;;12.50;94.70;;;;;;5073694;28;20036;-36
2024/03/06 01:43:38;;;;;;;3.10;1.85;;;12.50;94.70;;;;;;5073904;28;20480;-35
2024/03/06 01:46:04;;;;;;;3.50;1.80;;;12.50;94.80;;;;;;5074598;28;20017;-35
2024/03/06 01:48:31;;;;;;;4.30;2.10;;;12.50;94.80;;;;;;5073969;28;20020;-35
2024/03/06 01:50:59;;;;;;;3.85;1.90;;;12.50;94.80;;;;;;5074907;28;20025;-34
2024/03/06 01:53:29;;;;;;;2.67;1.67;;;12.50;94.80;;;;;;5074663;28;20598;-35
2024/03/06 01:55:55;;;;;;;3.55;1.90;;;12.50;94.80;;;;;;5073218;28;20484;-35
2024/03/06 01:58:21;;;;;;;4.38;1.80;;;12.40;94.80;;;;;;5073391;28;20021;-35
2024/03/06 02:00:48;;;;;;;3.45;1.90;;;12.50;94.80;;;;;;5072513;28;20110;-35
2024/03/06 02:03:14;;;;;;;3.95;1.52;;;12.40;94.80;;;;;;5073559;28;20033;-36
2024/03/06 02:05:41;;;;;;;2.65;1.70;;;12.40;94.80;;;;;;5074942;28;20202;-35
2024/03/06 02:08:07;;;;;;;3.25;1.77;;;12.40;94.80;;;;;;5073890;28;20035;-36
2024/03/06 02:10:34;;;;;;;4.50;1.45;;;12.40;94.90;;;;;;5072278;28;20071;-36
2024/03/06 02:13:00;;;;;;;3.45;1.70;;;12.40;94.90;;;;;;5075520;28;20024;-34
2024/03/06 02:15:26;;;;;;;3.38;1.85;;;12.40;94.90;;;;;;5073319;28;20082;-35
2024/03/06 02:17:53;;;;;;;2.97;1.80;;;12.40;94.90;;;;;;5075348;28;20029;-36
2024/03/06 02:20:25;;;;;;;3.38;1.80;;;12.40;94.90;;;;;;5073908;28;20028;-34
2024/03/06 02:22:51;;;;;;;2.45;1.70;;;12.40;94.90;;;;;;5072985;28;20021;-34
2024/03/06 02:25:17;;;;;;;1.90;1.55;;;12.40;94.90;;;;;;5072790;28;20066;-35
2024/03/06 02:27:43;;;;;;;2.45;1.48;;;12.30;94.90;;;;;;5072320;28;20077;-35
2024/03/06 02:30:09;;;;;;;2.95;1.65;;;12.30;94.90;;;;;;5074417;28;20020;-35
2024/03/06 02:32:35;;;;;;;3.15;1.63;;;12.30;94.90;;;;;;5072232;28;20056;-35
2024/03/06 02:35:03;;;;;;;2.70;1.40;;;12.30;95.30;;;;;;5074265;28;20060;-35
2024/03/06 02:37:28;;;;;;;3.15;1.70;;;12.30;95.30;;;;;;5073385;28;20025;-35
2024/03/06 02:39:54;;;;;;;3.08;1.73;;;12.30;95.00;;;;;;5073223;28;20025;-35
2024/03/06 02:42:20;;;;;;;3.63;1.58;;;12.30;95.00;;;;;;5071765;28;20390;-36
2024/03/06 02:44:46;;;;;;;2.53;1.70;;;12.30;95.00;;;;;;5074055;28;20040;-35
2024/03/06 02:47:11;;;;;;;2.30;1.75;;;12.30;95.00;;;;;;5073291;28;20081;-35
2024/03/06 02:49:37;;;;;;;3.30;1.80;;;12.30;95.00;;;;;;5073226;28;20465;-35
2024/03/06 02:52:03;;;;;;;2.75;1.55;;;12.20;95.00;;;;;;5072893;28;20029;-35
2024/03/06 02:54:29;;;;;;;2.38;1.58;;;12.20;95.00;;;;;;5071591;28;20029;-35
2024/03/06 02:56:54;;;;;;;3.42;1.58;;;12.20;95.00;;;;;;5071917;28;20076;-35
2024/03/06 02:59:20;;;;;;;2.28;1.40;;;12.20;95.00;;;;;;5073044;28;20108;-35
2024/03/06 03:01:46;;;;;;;2.00;1.30;;;12.20;95.00;;;;;;5071662;28;20040;-35
2024/03/06 03:04:11;;;;;;;2.75;1.58;;;12.20;95.00;;;;;;5072316;28;20032;-35
2024/03/06 03:06:37;;;;;;;2.53;1.40;;;12.20;95.00;;;;;;5071019;28;20502;-35
2024/03/06 03:09:05;;;;;;;2.72;1.75;;;12.20;95.00;;;;;;5070426;28;20435;-35
2024/03/06 03:11:32;;;;;;;3.47;1.70;;;12.20;95.00;;;;;;5073022;28;20028;-35
2024/03/06 03:13:59;;;;;;;4.28;1.88;;;12.20;95.00;;;;;;5074487;28;20422;-35
2024/03/06 03:16:25;;;;;;;2.63;1.73;;;12.20;95.00;;;;;;5071803;28;20020;-35
2024/03/06 03:18:50;;;;;;;2.33;1.48;;;12.20;95.10;;;;;;5071404;28;20074;-35
2024/03/06 03:21:16;;;;;;;2.42;1.55;;;12.10;95.00;;;;;;5071658;28;20024;-35
2024/03/06 03:23:42;;;;;;;2.42;1.52;;;12.20;95.10;;;;;;5073352;28;20035;-35
2024/03/06 03:26:11;;;;;;;3.15;1.48;;;12.10;95.10;;;;;;5074038;28;20108;-35
2024/03/06 03:28:40;;;;;;;2.00;1.33;;;12.20;95.10;;;;;;5072358;28;20037;-34
2024/03/06 03:31:09;;;;;;;2.17;1.50;;;12.10;95.10;;;;;;5071728;28;20027;-35
2024/03/06 03:33:38;;;;;;;2.30;1.48;;;12.20;95.20;;;;;;5071860;28;20029;-35
2024/03/06 03:36:05;;;;;;;2.60;1.50;;;12.10;95.10;;;;;;5072040;28;20032;-36
2024/03/06 03:38:31;;;;;;;2.58;1.38;;;12.10;95.10;;;;;;5072104;28;20053;-35
2024/03/06 03:40:57;;;;;;;2.65;1.70;;;12.10;95.20;;;;;;5072036;28;20143;-35
2024/03/06 03:43:22;;;;;;;3.40;1.70;;;12.10;95.50;;;;;;5071868;28;20027;-35
2024/03/06 03:45:48;;;;;;;2.15;1.60;;;12.10;95.20;;;;;;5072572;28;20032;-35
2024/03/06 03:48:15;;;;;;;1.95;1.33;;;12.10;95.20;;;;;;5069398;28;20017;-35
2024/03/06 03:50:41;;;;;;;2.75;1.60;;;12.10;95.20;;;;;;5071103;28;20032;-35
2024/03/06 03:53:06;;;;;;;2.42;1.30;;;12.10;95.20;;;;;;5071381;28;20110;-36
2024/03/06 03:55:32;;;;;;;2.33;1.52;;;12.10;95.20;;;;;;5071002;28;20112;-35
2024/03/06 03:57:57;;;;;;;2.00;1.38;;;12.10;95.20;;;;;;5070898;28;20032;-36
2024/03/06 04:00:23;;;;;;;3.22;1.35;;;12.10;95.20;;;;;;5071967;28;20081;-35
2024/03/06 04:02:49;;;;;;;2.95;1.40;;;12.10;95.30;;;;;;5072231;28;20021;-36
2024/03/06 04:05:14;;;;;;;2.45;1.35;;;12.10;95.30;;;;;;5071773;28;20021;-35
2024/03/06 04:07:40;;;;;;;2.80;1.40;;;12.00;95.30;;;;;;5071366;28;20436;-35
2024/03/06 04:10:06;;;;;;;2.67;1.45;;;12.10;95.30;;;;;;5070840;28;20029;-35
2024/03/06 04:12:32;;;;;;;1.85;1.30;;;12.10;95.30;;;;;;5071639;28;20052;-35
2024/03/06 04:14:58;;;;;;;2.85;1.42;;;12.10;95.30;;;;;;5072114;28;20463;-35
2024/03/06 04:17:25;;;;;;;3.75;1.73;;;12.00;95.30;;;;;;5071246;28;20016;-36
2024/03/06 04:19:50;;;;;;;3.03;1.38;;;12.10;95.40;;;;;;5071664;28;20023;-36
2024/03/06 04:22:19;;;;;;;2.60;1.35;;;12.00;95.30;;;;;;5074002;28;20103;-35
2024/03/06 04:24:44;;;;;;;2.70;1.30;;;12.00;95.30;;;;;;5076238;28;20100;-35
2024/03/06 04:27:10;;;;;;;2.70;1.23;;;12.00;95.30;;;;;;5075440;28;20099;-35
2024/03/06 04:29:36;;;;;;;1.58;1.17;;;12.00;95.40;;;;;;5075019;28;20088;-35
2024/03/06 04:32:02;;;;;;;2.28;1.10;;;12.00;95.40;;;;;;5074890;28;20036;-36
2024/03/06 04:34:27;;;;;;;3.55;1.55;;;12.00;95.70;;;;;;5074931;28;20063;-35
2024/03/06 04:36:53;;;;;;;2.70;1.58;;;12.00;95.40;;;;;;5074190;28;20070;-35
2024/03/06 04:39:18;;;;;;;2.15;1.10;;;12.00;95.40;;;;;;5074553;28;20032;-35
2024/03/06 04:41:44;;;;;;;1.95;1.20;;;12.00;95.40;;;;;;5074817;28;20028;-35
2024/03/06 04:44:10;;;;;;;1.30;1.05;;;12.00;95.40;;;;;;5074204;28;20021;-35
2024/03/06 04:46:35;;;;;;;2.53;1.40;;;11.90;95.40;;;;;;5075214;28;20032;-36
2024/03/06 04:49:01;;;;;;;1.40;1.17;;;12.00;95.40;;;;;;5075536;28;20038;-35
2024/03/06 04:51:26;;;;;;;2.10;1.10;;;12.00;95.40;;;;;;5073914;28;20034;-35
2024/03/06 04:53:52;;;;;;;2.53;1.23;;;11.90;95.40;;;;;;5076224;28;20060;-36
2024/03/06 04:56:18;;;;;;;2.42;1.48;;;12.00;95.50;;;;;;5074363;28;20028;-35
2024/03/06 04:58:45;;;;;;;2.13;1.35;;;12.00;95.50;;;;;;5075053;28;20021;-35
2024/03/06 05:01:12;;;;;;;3.22;1.50;;;11.90;95.50;;;;;;5074454;28;20033;-38
2024/03/06 05:03:38;;;;;;;2.03;1.10;;;11.90;95.50;;;;;;5075164;28;20851;-34
2024/03/06 05:06:05;;;;;;;2.53;1.42;;;11.90;95.50;;;;;;5073911;28;20111;-35
2024/03/06 05:08:30;;;;;;;2.85;1.25;;;11.90;95.50;;;;;;5074857;28;20035;-35
2024/03/06 05:11:00;;;;;;;2.00;1.20;;;11.90;95.50;;;;;;5074552;28;20029;-35
2024/03/06 05:13:26;;;;;;;2.42;1.50;;;11.90;95.50;;;;;;5074440;28;20052;-35
2024/03/06 05:15:54;;;;;;;1.40;1.08;;;11.90;95.50;;;;;;5074626;28;20060;-35
2024/03/06 05:18:20;;;;;;;2.88;1.50;;;11.90;95.50;;;;;;5074933;28;20032;-35
2024/03/06 05:20:46;;;;;;;2.13;1.27;;;11.90;95.50;;;;;;5074525;28;20036;-35
2024/03/06 05:23:12;;;;;;;3.78;1.67;;;11.90;95.50;;;;;;5074565;28;20473;-37
2024/03/06 05:25:38;;;;;;;1.95;1.35;;;11.90;95.60;;;;;;5073470;28;20017;-35
2024/03/06 05:28:04;;;;;;;3.25;1.40;;;11.90;95.60;;;;;;5073310;28;20040;-35
2024/03/06 05:30:30;;;;;;;2.35;1.30;;;11.90;95.60;;;;;;5074383;28;20044;-35
2024/03/06 05:32:56;;;;;;;2.60;1.55;;;11.90;95.60;;;;;;5073397;28;20052;-37
2024/03/06 05:35:22;;;;;;;2.53;1.38;;;11.90;95.60;;;;;;5074002;28;20074;-35
2024/03/06 05:37:48;;;;;;;3.10;1.50;;;11.90;95.60;;;;;;5074204;28;20024;-35
2024/03/06 05:40:13;;;;;;;1.80;1.27;;;11.80;95.60;;;;;;5073767;28;20060;-35
2024/03/06 05:42:39;;;;;;;2.08;1.50;;;11.80;95.60;;;;;;5074756;28;20032;-35
2024/03/06 05:45:10;;;;;;;6.13;3.80;;;11.80;95.60;;;;;;5074200;28;20023;-35
2024/03/06 05:47:36;;;;;;;4.35;2.88;;;11.80;95.50;;;;;;5073830;28;20024;-35
2024/03/06 05:50:04;;;;;;;4.22;2.60;;;11.80;95.30;;;;;;5073859;28;20056;-35
2024/03/06 05:52:30;;;;;;;4.05;2.55;;;11.80;95.20;;;;;;5073765;28;20025;-35
2024/03/06 05:54:56;;;;;;;4.10;2.30;;;11.70;95.30;;;;;;5073371;28;20394;-36
2024/03/06 05:57:23;;;;;;;4.45;2.58;;;11.80;95.40;;;;;;5074576;28;20017;-34
2024/03/06 05:59:50;;;;;;;3.15;2.10;;;11.70;95.40;;;;;;5072781;28;20031;-34
2024/03/06 06:02:19;;;;;;;5.05;2.55;;;11.70;95.40;;;;;;5073889;28;20490;-34
2024/03/06 06:04:45;;;;;;;4.78;2.45;;;11.80;95.50;;;;;;5075112;28;20078;-35
2024/03/06 06:07:11;;;;;;;3.97;2.60;;;11.70;95.50;;;;;;5074117;28;20048;-34
2024/03/06 06:09:37;;;;;;;6.53;2.55;;;11.80;95.90;;;;;;5075059;28;20082;-36
2024/03/06 06:12:02;;;;;;;4.57;2.45;;;11.70;95.90;;;;;;5074689;28;20037;-35
2024/03/06 06:14:29;;;;;;;4.68;2.55;;;11.70;95.60;;;;;;5073102;28;20103;-35
2024/03/06 06:16:56;;;;;;;5.30;2.90;;;11.80;95.70;;;;;;5072373;28;20028;-36
2024/03/06 06:19:21;;;;;;;4.95;2.45;;;11.80;95.70;;;;;;5072626;28;20587;-35
2024/03/06 06:21:47;;;;;;;3.95;2.42;;;11.80;95.70;;;;;;5073599;28;20137;-35
2024/03/06 06:24:14;;;;;;;4.47;2.42;;;11.80;95.70;;;;;;5073446;28;20106;-35
2024/03/06 06:26:40;;;;;;;4.30;2.20;;;11.80;95.70;;;;;;5073828;28;20115;-35
2024/03/06 06:29:06;;;;;;;4.18;2.60;;;11.80;95.80;;;;;;5073012;28;20529;-35
2024/03/06 06:31:31;;;;;;;3.97;2.60;;;11.80;95.80;;;;;;5072285;28;20024;-35
2024/03/06 06:33:57;;;;;;;3.80;2.50;;;11.90;95.90;;;;;;5072474;28;20107;-35
2024/03/06 06:36:23;;;;;;;3.40;2.38;;;11.90;95.90;;;;;;5073483;28;20483;-35
2024/03/06 06:38:49;;;;;;;4.05;2.30;;;11.90;95.90;;;;;;5073859;28;20040;-35
2024/03/06 06:41:15;;;;;;;6.55;2.35;;;12.00;95.80;;;;;;5072046;28;20028;-34
2024/03/06 06:43:41;;;;;;;5.10;2.47;;;12.00;95.80;;;;;;5071771;28;20493;-35
2024/03/06 06:46:07;;;;;;;4.13;2.10;;;12.10;95.80;;;;;;5072857;28;20078;-34
2024/03/06 06:48:33;;;;;;;2.67;1.90;;;12.20;95.80;;;;;;5073093;28;20025;-35
2024/03/06 06:51:05;;;;;;;3.75;2.45;;;12.20;95.70;;;;;;5072631;28;20070;-35
2024/03/06 06:53:32;;;;;;;4.60;2.13;;;12.20;95.60;;;;;;5073254;28;20473;-35
2024/03/06 06:55:58;;;;;;;3.72;2.13;;;12.30;95.60;;;;;;5073369;28;20589;-35
2024/03/06 06:58:24;;;;;;;3.58;2.15;;;12.30;95.50;;;;;;5072911;28;20112;-35
2024/03/06 07:00:50;;;;;;;3.10;2.13;;;12.40;95.80;;;;;;5072555;28;20390;-35
2024/03/06 07:03:16;;;;;;;4.72;2.65;;;12.50;95.40;;;;;;5073278;28;20012;-35
2024/03/06 07:05:42;;;;;;;2.60;1.92;;;12.50;95.40;;;;;;5072808;28;20363;-34
2024/03/06 07:08:08;;;;;;;3.70;2.20;;;12.60;95.30;;;;;;5071747;28;20051;-35
2024/03/06 07:10:35;;;;;;;2.85;1.70;;;12.60;95.20;;;;;;5071938;28;20379;-37
2024/03/06 07:13:02;;;;;;;4.10;2.03;;;12.70;95.20;;;;;;5072982;28;20047;-36
2024/03/06 07:15:28;;;;;;;3.88;2.13;;;12.70;95.40;;;;;;5071389;28;20024;-35
2024/03/06 07:17:54;;;;;;;3.13;2.08;;;12.70;95.00;;;;;;5071729;28;20094;-35
2024/03/06 07:20:20;;;;;;;3.70;2.20;;;12.80;94.90;;;;;;5072668;28;20494;-36
2024/03/06 07:22:46;;;;;;;3.22;1.88;;;12.90;94.90;;;;;;5071979;28;20028;-35
2024/03/06 07:25:11;;;;;;;3.28;2.03;;;12.90;94.80;;;;;;5071532;28;20099;-35
2024/03/06 07:27:37;;;;;;;2.78;1.70;;;13.00;94.80;;;;;;5072248;28;20024;-35
2024/03/06 07:30:03;;;;;;;3.42;2.00;;;13.00;94.70;;;;;;5071832;28;20017;-35
2024/03/06 07:32:28;;;;;;;3.35;2.00;;;13.00;94.60;;;;;;5073569;28;20028;-35
2024/03/06 07:34:54;;;;;;;3.38;1.95;;;13.10;94.60;;;;;;5072138;28;20042;-35
2024/03/06 07:37:20;;;;;;;3.08;1.70;;;13.10;94.60;;;;;;5072382;28;20063;-35
2024/03/06 07:39:46;;;;;;;2.40;1.80;;;13.20;94.50;;;;;;5072465;28;20072;-35
2024/03/06 07:42:12;;;;;;;3.92;2.75;;;13.20;94.40;;;;;;5073327;28;20612;-36
2024/03/06 07:44:45;;;;;;;4.25;2.80;;;13.30;94.30;;;;;;5072403;28;20025;-36
2024/03/06 07:47:11;;;;;;;5.90;2.67;;;13.30;94.30;;;;;;5071006;28;20201;-36
2024/03/06 07:49:37;;;;;;;5.20;2.70;;;13.30;94.30;;;;;;5070844;28;20364;-35
2024/03/06 07:52:03;;;;;;;4.55;2.67;;;13.40;94.30;;;;;;5073314;28;20036;-36
2024/03/06 07:54:29;;;;;;;5.57;2.80;;;13.40;94.40;;;;;;5071871;28;20021;-36
2024/03/06 07:56:54;;;;;;;4.90;2.88;;;13.50;94.50;;;;;;5071630;28;20032;-35
2024/03/06 07:59:20;;;;;;;4.00;2.38;;;13.60;94.50;;;;;;5071926;28;20024;-35
2024/03/06 08:01:46;;;;;;;4.35;2.55;;;13.60;94.60;;;;;;5072520;28;20036;-35
2024/03/06 08:04:11;;;;;;;3.72;2.50;;;13.70;94.60;;;;;;5071503;28;20497;-36
2024/03/06 08:06:37;;;;;;;3.17;2.15;;;13.70;94.60;;;;;;5071162;28;20432;-33
2024/03/06 08:09:03;;;;;;;3.78;2.10;;;13.70;94.70;;;;;;5070737;28;20478;-33
2024/03/06 08:11:29;;;;;;;4.53;2.28;;;13.80;94.70;;;;;;5071198;28;20033;-33
2024/03/06 08:13:58;;;;;;;2.70;1.90;;;13.90;94.70;;;;;;5072473;28;20078;-33
2024/03/06 08:16:24;;;;;;;3.67;2.42;;;14.00;94.70;;;;;;5070280;28;20123;-33
2024/03/06 08:18:50;;;;;;;4.80;2.10;;;14.00;94.70;;;;;;5070737;28;20108;-43
2024/03/06 08:21:15;;;;;;;3.08;1.98;;;14.10;94.70;;;;;;5071686;28;20421;-43
2024/03/06 08:23:42;;;;;;;5.93;1.92;;;14.10;94.70;;;;;;5070493;28;20028;-44
2024/03/06 08:26:07;;;;;;;3.05;1.45;;;14.20;94.70;;;;;;5070540;28;20025;-42
2024/03/06 08:28:33;;;;;;;2.55;1.77;;;14.30;94.70;;;;;;5070628;28;20112;-43
2024/03/06 08:31:00;;;;;;;2.97;1.83;;;14.30;94.60;;;;;;5072036;28;20093;-43
2024/03/06 08:33:25;;;;;;;3.20;1.65;;;14.40;94.90;;;;;;5071586;28;20039;-43
2024/03/06 08:35:51;;;;;;;2.70;1.65;;;14.40;94.60;;;;;;5070972;28;20028;-43
2024/03/06 08:38:17;;;;;;;2.85;1.65;;;14.50;94.60;;;;;;5070382;28;20028;-44
2024/03/06 08:40:45;;;;;;;2.88;1.70;;;14.60;94.50;;;;;;5071117;28;20033;-44
2024/03/06 08:43:12;;;;;;;2.20;1.60;;;14.60;94.50;;;;;;5070909;28;20165;-43
2024/03/06 08:45:38;;;;;;;3.47;1.80;;;14.70;94.50;;;;;;5071217;28;20295;-43
2024/03/06 08:48:05;;;;;;;2.30;1.55;;;14.70;94.40;;;;;;5071191;28;20526;-43
2024/03/06 08:50:31;;;;;;;2.28;1.35;;;14.80;94.40;;;;;;5070966;28;20029;-44
2024/03/06 08:52:56;;;;;;;2.22;1.45;;;14.90;94.40;;;;;;5072460;28;20032;-43
2024/03/06 08:55:22;;;;;;;2.53;1.73;;;14.90;94.30;;;;;;5072056;28;20103;-44
2024/03/06 08:57:50;;;;;;;2.47;1.58;;;15.00;94.30;;;;;;5072213;28;20252;-43
2024/03/06 09:00:17;;;;;;;1.55;1.30;;;15.00;94.20;;;;;;5071302;28;20027;-44
2024/03/06 09:02:43;;;;;;;1.85;1.40;;;15.10;94.20;;;;;;5071961;28;20017;-43
2024/03/06 09:05:12;;;;;;;1.80;1.33;;;15.10;94.10;;;;;;5070692;28;20020;-43
2024/03/06 09:07:42;;;;;;;2.08;1.15;;;15.20;94.10;;;;;;5072065;28;20100;-43
2024/03/06 09:10:09;;;;;;;2.63;1.30;;;15.20;94.10;;;;;;5075706;28;20490;-43
2024/03/06 09:12:35;;;;;;;2.10;1.23;;;15.30;94.10;;;;;;5075123;28;20427;-43
2024/03/06 09:15:01;;;;;;;1.85;1.10;;;15.30;94.00;;;;;;5073617;28;20055;-44
2024/03/06 09:17:27;;;;;;;1.77;1.25;;;15.30;94.00;;;;;;5073496;28;20020;-43
2024/03/06 09:19:53;;;;;;;2.97;1.35;;;15.40;94.00;;;;;;5075378;28;20035;-41
2024/03/06 09:22:19;;;;;;;1.73;1.20;;;15.50;93.90;;;;;;5075232;28;20062;-43
2024/03/06 09:24:45;;;;;;;1.80;1.10;;;15.50;93.90;;;;;;5073755;28;20024;-42
2024/03/06 09:27:13;;;;;;;1.95;1.05;;;15.50;93.80;;;;;;5073447;28;20028;-44
2024/03/06 09:29:39;;;;;;;2.25;1.27;;;15.60;93.80;;;;;;5073304;28;20491;-43
2024/03/06 09:32:05;;;;;;;1.77;1.02;;;15.60;93.80;;;;;;5073347;28;20505;-43
2024/03/06 09:34:31;;;;;;;1.40;1.00;;;15.70;93.70;;;;;;5073394;28;20052;-44
2024/03/06 09:36:57;;;;;;;1.95;1.15;;;15.70;93.70;;;;;;5071940;28;20024;-43
2024/03/06 09:39:25;;;;;;;2.10;1.08;;;15.70;93.60;;;;;;5073671;28;20552;-44
2024/03/06 09:41:51;;;;;;;2.38;1.08;;;15.80;93.60;;;;;;5074104;28;20028;-43
2024/03/06 09:44:18;;;;;;;2.08;1.20;;;15.80;93.60;;;;;;5073193;28;20020;-43
2024/03/06 09:46:47;;;;;;;1.33;0.90;;;15.80;93.50;;;;;;5073675;28;20534;-44
2024/03/06 09:49:15;;;;;;;2.03;1.23;;;15.90;93.50;;;;;;5074112;28;20034;-44
2024/03/06 09:51:53;;;;;;;1.08;0.82;;;15.90;93.50;;;;;;5073325;28;20031;-43
2024/03/06 09:54:20;;;;;;;1.23;0.85;;;16.00;93.50;;;;;;5071746;28;20036;-44
2024/03/06 09:56:47;;;;;;;2.20;0.82;;;16.00;93.40;;;;;;5073366;28;20025;-43
2024/03/06 09:59:14;;;;;;;1.30;0.80;;;16.00;93.40;;;;;;5072823;28;20136;-43
2024/03/06 10:01:53;;;;;;;1.65;1.08;;;16.00;93.40;;;;;;5072719;28;20104;-44
2024/03/06 10:04:27;;;;;;;1.48;0.90;;;16.10;93.30;;;;;;5074934;28;20138;-44
2024/03/06 10:06:57;;;;;;;1.55;1.08;;;16.10;93.30;;;;;;5073980;28;20016;-44
2024/03/06 10:09:24;;;;;;;1.42;0.90;;;16.20;93.30;;;;;;5074346;28;20031;-43
2024/03/06 10:11:52;;;;;;;0.80;0.70;;;16.20;93.20;;;;;;5074046;28;20032;-44
2024/03/06 10:14:18;;;;;;;1.75;0.93;;;16.20;93.20;;;;;;5074127;28;20027;-43
2024/03/06 10:16:58;;;;;;;1.85;1.10;;;16.20;93.50;;;;;;5074381;28;20017;-44
2024/03/06 10:19:29;;;;;;;1.30;0.90;;;16.20;93.10;;;;;;5072875;28;20028;-43
2024/03/06 10:21:57;;;;;;;1.77;1.00;;;16.30;93.10;;;;;;5073558;28;20063;-43
2024/03/06 10:24:24;;;;;;;1.73;0.90;;;16.30;93.10;;;;;;5073205;28;20455;-43
2024/03/06 10:26:51;;;;;;;1.50;0.93;;;16.30;93.10;;;;;;5073918;28;20021;-43
2024/03/06 10:29:20;;;;;;;1.17;0.90;;;16.30;93.00;;;;;;5071901;28;20040;-44
2024/03/06 10:31:57;;;;;;;1.27;0.88;;;16.40;93.00;;;;;;5074232;28;20545;-43
2024/03/06 10:34:26;;;;;;;1.17;0.70;;;16.40;93.00;;;;;;5074832;28;20056;-44
2024/03/06 10:36:56;;;;;;;1.52;0.90;;;16.40;93.00;;;;;;5073335;28;20048;-43
2024/03/06 10:39:23;;;;;;;1.45;1.00;;;16.40;93.00;;;;;;5073287;28;20401;-43
2024/03/06 10:41:56;;;;;;;1.40;0.90;;;16.40;92.90;;;;;;5072941;28;20487;-43
2024/03/06 10:44:25;;;;;;;1.80;1.02;;;16.50;92.90;;;;;;5073063;28;20020;-42
2024/03/06 10:47:01;;;;;;;1.92;0.90;;;16.50;92.90;;;;;;5073536;28;20039;-44
2024/03/06 10:49:29;;;;;;;1.73;0.80;;;16.50;92.90;;;;;;5072380;28;20048;-43
2024/03/06 10:52:05;;;;;;;1.13;0.77;;;16.50;92.90;;;;;;5073157;28;20027;-43
2024/03/06 10:54:34;;;;;;;1.00;0.70;;;16.50;92.90;;;;;;5073197;28;20036;-43
2024/03/06 10:57:02;;;;;;;0.82;0.70;;;16.50;92.90;;;;;;5074389;28;20505;-42
2024/03/06 10:59:29;;;;;;;1.08;0.80;;;16.50;92.80;;;;;;5072983;28;20399;-42
2024/03/06 11:01:56;;;;;;;1.23;0.90;;;16.60;92.90;;;;;;5071847;28;20575;-46
2024/03/06 11:04:34;;;;;;;0.70;0.60;;;16.60;92.80;;;;;;5071636;28;20062;-46
2024/03/06 11:07:02;;;;;;;1.00;0.80;;;16.60;92.80;;;;;;5071645;28;20077;-46
2024/03/06 11:09:32;;;;;;;1.67;0.85;;;16.60;92.80;;;;;;5071536;28;20020;-46
2024/03/06 11:11:58;;;;;;;1.65;0.95;;;16.60;92.80;;;;;;5071988;28;20499;-46
2024/03/06 11:14:26;;;;;;;1.02;0.82;;;16.60;92.80;;;;;;5071767;28;20024;-44
2024/03/06 11:17:04;;;;;;;1.30;0.93;;;16.60;92.70;;;;;;5071885;28;20041;-46
2024/03/06 11:19:31;;;;;;;2.15;1.25;;;16.60;92.70;;;;;;5073713;28;20047;-45
2024/03/06 11:21:57;;;;;;;1.10;0.77;;;16.60;92.70;;;;;;5073336;28;20093;-45
2024/03/06 11:24:31;;;;;;;1.27;0.95;;;16.60;92.60;;;;;;5073285;28;20025;-44
2024/03/06 11:27:00;;;;;;;1.77;0.88;;;16.70;92.70;;;;;;5072029;28;20016;-45
2024/03/06 11:29:28;;;;;;;1.88;0.82;;;16.60;92.60;;;;;;5070812;28;20039;-44
2024/03/06 11:32:07;;;;;;;1.70;1.00;;;16.70;92.60;;;;;;5070380;28;20042;-45
2024/03/06 11:34:37;;;;;;;1.10;1.00;;;16.70;92.60;;;;;;5072435;28;20028;-45
2024/03/06 11:37:05;;;;;;;1.05;0.80;;;16.70;92.60;;;;;;5071847;28;20038;-44
2024/03/06 11:39:36;;;;;;;1.15;0.80;;;16.70;92.60;;;;;;5073189;28;20110;-46
2024/03/06 11:42:02;;;;;;;1.10;0.80;;;16.70;92.60;;;;;;5073992;28;20027;-46
2024/03/06 11:44:29;;;;;;;1.52;0.85;;;16.70;92.60;;;;;;5073525;28;20048;-46
2024/03/06 11:47:03;;;;;;;1.73;1.08;;;16.70;92.50;;;;;;5073019;28;20027;-45
2024/03/06 11:49:32;;;;;;;1.07;0.87;;;16.70;92.50;;;;;;5071596;28;20031;-46
2024/03/06 11:52:04;;;;;;;0.80;0.70;;;16.70;92.50;;;;;;5071647;28;20267;-45
2024/03/06 11:54:31;;;;;;;1.45;1.10;;;16.70;92.50;;;;;;5072851;28;20028;-46
2024/03/06 11:56:59;;;;;;;1.65;0.98;;;16.70;92.50;;;;;;5071943;28;20035;-45
2024/03/06 11:59:30;;;;;;;2.28;1.27;;;16.70;92.40;;;;;;5073316;28;20020;-44
2024/03/06 12:02:11;;;;;;;0.93;0.80;;;16.70;92.40;;;;;;5073388;28;20065;-44
2024/03/06 12:04:37;;;;;;;2.08;1.25;;;16.70;92.40;;;;;;5071724;28;20028;-46
2024/03/06 12:07:06;;;;;;;1.13;1.00;;;16.70;92.40;;;;;;5072634;28;20479;-46
2024/03/06 12:09:37;;;;;;;1.38;0.88;;;16.80;92.40;;;;;;5072552;28;20100;-44
2024/03/06 12:12:03;;;;;;;1.08;0.98;;;16.80;92.40;;;;;;5073117;28;20551;-44
2024/03/06 12:14:29;;;;;;;1.27;0.95;;;16.80;92.40;;;;;;5072006;28;20021;-45
2024/03/06 12:17:00;;;;;;;1.45;1.00;;;16.80;92.40;;;;;;5071478;28;20031;-46
2024/03/06 12:19:31;;;;;;;1.65;0.90;;;16.70;92.30;;;;;;5071949;28;20035;-45
2024/03/06 12:22:04;;;;;;;2.00;1.00;;;16.70;92.30;;;;;;5073105;28;20039;-42
2024/03/06 12:24:30;;;;;;;1.77;0.93;;;16.80;92.30;;;;;;5072194;28;20021;-45
2024/03/06 12:27:00;;;;;;;1.42;1.00;;;16.80;92.30;;;;;;5070452;28;20024;-45
2024/03/06 12:29:30;;;;;;;1.75;1.10;;;16.80;92.30;;;;;;5070478;28;20119;-45
2024/03/06 12:31:57;;;;;;;1.38;1.05;;;16.80;92.30;;;;;;5070849;28;20108;-45
2024/03/06 12:34:22;;;;;;;1.00;0.80;;;16.70;92.20;;;;;;5070598;28;20025;-45
2024/03/06 12:36:48;;;;;;;1.42;1.10;;;16.80;92.30;;;;;;5070192;28;20032;-45
2024/03/06 12:39:18;;;;;;;1.63;1.23;;;16.80;92.30;;;;;;5070498;28;20052;-45
2024/03/06 12:41:43;;;;;;;1.33;1.02;;;16.80;92.30;;;;;;5070560;28;20036;-46
2024/03/06 12:44:09;;;;;;;1.42;1.00;;;16.70;92.20;;;;;;5074601;28;20402;-46
2024/03/06 12:46:35;;;;;;;0.95;0.80;;;16.80;92.30;;;;;;5074830;28;20032;-45